Airfield :
LOGIN :

Register | Disclaimer

   EN    FR    IT 

 










Legend :    VFR   Marginal VFR   IFR   Intensive IFR   Very Intensive IFR
Visi :
Ceiling :
>= 8 km
>= 3000ft
5 to 8 km
1000 to 3000 ft
1500m to 5 km
500 to 1000 ft
800 to 1500m
200 to 500 ft
< 800m
< 200 ft
Symbols :   Thunderstorms  Fog  Heavy snow  Heavy precipitations  Wind > 20 kt
SIGMETs :     Misc.  Thunderstorms  Icing  Turbulence  Mountain Waves  Volcanic Ashes







- Airport Elevation : 200 ft


EBBL - Klein Brogel AB

CURRENT METAR :
  • 270534Z 05009KT 9999 BKN013 16/12 Q1028 GRN GRN BECMG BLU

EXPIRED METARs :
  • 270455Z 04008KT 9999 BKN012 15/12 Q1028 GRN GRN
  • 270425Z 04009KT 9999 BKN011 15/12 Q1028 GRN GRN
  • 270406Z 05009KT 9999 BKN011 15/12 Q1028 GRN GRN
  • 270355Z AUTO 05009KT 9999 OVC010/// 15/12 Q1028 GRN
  • 270325Z AUTO 04009KT 9999 BKN010/// 15/13 Q1028 GRN
  • 270303Z AUTO 03006KT 9999 SCT011/// 14/13 Q1028 GRN

TAF TAF EBBL
Valid from the 26 at 19:00 until the 27 at 07:00 UTC


261541Z 2619/2707 36007KT 9999 FEW020
BECMG 2700/2702 VRB03KT 7000 SCT005
BECMG 2702/2704 3000 BR BKN005
No reported NOTAMs for that airfield.



MET'MAP, your aeronautical weather chart ! - Copyright ORBIFLY December 2007 - Disclaimer

ORBIFLY MET'MAP TEAM :

Programming & Development : Alexandra Zaïnal
Concept & Development : Baudouin d'Aumeries
Co-Development & Prog : Marc-Olivier Méhu
Technical & hardware support : Manuel Goepfert

Contact : metmap@orbifly.com




SOURCES & CREDITS :

   NOAA